Time;durP1;ratioP1;P1;durP2;ratioP2;P2;SDS_P1;SDS_P2;PMS_P1;PMS_P2;Temp;Humidity;BMP_temperature;BMP_pressure;BME280_temperature;BME280_humidity;BME280_pressure;Samples;Min_cycle;Max_cycle;Signal;HPM_P1;HPM_P2
2022/09/22 00:01:56;;;;;;;9.40;5.90;;;;;;;11.02;65.40;99844.27;1635618;87;21219;-79
2022/09/22 00:05:02;;;;;;;9.23;6.58;;;;;;;10.94;64.79;99840.58;1635191;87;21222;-79
2022/09/22 00:08:09;;;;;;;10.32;6.35;;;;;;;10.90;64.28;99841.16;1635712;87;21200;-78
2022/09/22 00:11:15;;;;;;;11.05;6.72;;;;;;;10.82;64.19;99843.48;1635831;87;21219;-79
2022/09/22 00:14:31;;;;;;;13.15;7.03;;;;;;;10.71;64.63;99844.78;1635757;87;21236;-78
2022/09/22 00:17:36;;;;;;;13.38;7.08;;;;;;;10.73;64.98;99849.56;1634637;87;21243;-78
2022/09/22 00:20:45;;;;;;;12.25;6.28;;;;;;;10.73;65.08;99850.09;1635498;87;21235;-78
2022/09/22 00:23:51;;;;;;;10.38;7.20;;;;;;;10.70;65.54;99858.66;1621986;87;21259;-78
2022/09/22 00:26:57;;;;;;;14.85;7.42;;;;;;;10.65;65.91;99855.13;1634515;87;21211;-78
2022/09/22 00:30:02;;;;;;;12.90;7.08;;;;;;;10.66;65.87;99851.86;1634506;87;21231;-78
2022/09/22 00:33:08;;;;;;;11.50;6.87;;;;;;;10.70;65.83;99855.41;1635708;87;21216;-78
2022/09/22 00:36:15;;;;;;;13.18;7.25;;;;;;;10.65;65.89;99852.91;1634578;87;21525;-78
2022/09/22 00:39:14;;;;;;;14.60;6.67;;;;;;;10.59;66.20;99855.03;1635617;87;21224;-78
2022/09/22 00:42:08;;;;;;;10.13;7.08;;;;;;;10.47;66.62;99860.94;1635600;87;21228;-78
2022/09/22 00:45:16;;;;;;;10.37;6.80;;;;;;;10.54;66.67;99865.66;1634737;87;21279;-78
2022/09/22 00:48:20;;;;;;;11.85;6.83;;;;;;;10.56;66.40;99863.60;1638109;87;21203;-78
2022/09/22 00:51:29;;;;;;;11.53;6.20;;;;;;;10.46;66.34;99867.45;1634858;86;21950;-78
2022/09/22 00:54:35;;;;;;;9.35;6.47;;;;;;;10.43;66.32;99865.60;1635675;87;21212;-78
2022/09/22 00:57:42;;;;;;;9.50;6.67;;;;;;;10.35;66.18;99865.67;1635605;87;21821;-78
2022/09/22 01:00:48;;;;;;;8.68;6.15;;;;;;;10.28;66.01;99861.48;1635682;87;21220;-78
2022/09/22 01:03:53;;;;;;;11.73;6.20;;;;;;;10.17;66.36;99866.00;1634464;87;21211;-78
2022/09/22 01:06:58;;;;;;;14.07;6.33;;;;;;;10.14;65.93;99866.36;1636895;87;21235;-78
2022/09/22 01:10:04;;;;;;;11.10;6.78;;;;;;;10.10;65.83;99865.88;1635476;87;21342;-78
2022/09/22 01:13:41;;;;;;;8.73;6.83;;;;;;;10.00;65.88;99872.11;1635661;87;21227;-78
2022/09/22 01:17:10;;;;;;;11.53;6.90;;;;;;;10.06;65.60;99873.25;1634816;87;21302;-78
2022/09/22 01:20:35;;;;;;;12.98;7.35;;;;;;;9.98;65.52;99873.67;1628469;87;21341;-79
2022/09/22 01:24:10;;;;;;;10.63;6.17;;;;;;;9.86;66.65;99871.02;1635685;87;21279;-79
2022/09/22 01:27:39;;;;;;;9.75;6.65;;;;;;;9.71;67.31;99875.06;1634803;87;21292;-79
2022/09/22 01:30:58;;;;;;;11.73;8.70;;;;;;;9.75;67.91;99876.92;1635836;87;21442;-79
2022/09/22 01:34:17;;;;;;;16.20;8.58;;;;;;;9.80;68.30;99873.64;1632960;87;21227;-78
2022/09/22 01:37:30;;;;;;;14.68;7.40;;;;;;;9.71;68.95;99879.16;1634467;87;21307;-78
2022/09/22 01:40:55;;;;;;;7.50;5.90;;;;;;;9.77;68.70;99880.30;1635708;87;21235;-78
2022/09/22 01:44:07;;;;;;;8.75;5.50;;;;;;;9.79;67.98;99879.63;1635537;87;21255;-78
2022/09/22 01:47:23;;;;;;;7.17;5.47;;;;;;;9.68;67.33;99877.30;1634735;87;21287;-78
2022/09/22 01:50:42;;;;;;;9.78;6.17;;;;;;;9.53;67.04;99876.38;1634362;86;21270;-78
2022/09/22 01:53:52;;;;;;;6.33;4.85;;;;;;;9.37;67.04;99875.45;1634946;86;21259;-78
2022/09/22 01:57:01;;;;;;;;;;;;;;;9.08;67.94;99879.33;1637366;87;21263;-78
2022/09/22 02:00:10;;;;;;;7.85;5.53;;;;;;;9.02;68.37;99887.71;1634987;87;20616;-78
2022/09/22 02:03:33;;;;;;;9.93;6.40;;;;;;;9.17;68.09;99883.72;1635957;87;22094;-78
2022/09/22 02:06:46;;;;;;;18.15;7.40;;;;;;;9.19;67.92;99884.41;1587973;87;21239;-78
2022/09/22 02:09:54;;;;;;;15.90;8.65;;;;;;;9.10;68.39;99882.23;1634378;86;22510;-78
2022/09/22 02:12:59;;;;;;;12.25;7.92;;;;;;;9.12;68.46;99882.89;1634434;87;21228;-77
2022/09/22 02:16:04;;;;;;;10.75;6.40;;;;;;;9.14;68.62;99880.85;1634666;87;21236;-78
2022/09/22 02:19:31;;;;;;;19.20;6.28;;;;;;;9.18;68.35;99884.93;1635795;87;21809;-78
2022/09/22 02:22:37;;;;;;;12.43;7.22;;;;;;;9.19;68.09;99878.44;1635712;87;21271;-78
2022/09/22 02:25:44;;;;;;;12.98;7.97;;;;;;;9.19;68.17;99870.25;1635781;87;21267;-78
2022/09/22 02:28:43;;;;;;;12.25;8.20;;;;;;;9.25;67.92;99875.50;1635744;87;21350;-77
2022/09/22 02:31:44;;;;;;;12.58;7.62;;;;;;;9.29;68.15;99880.10;1634613;87;21282;-77
2022/09/22 02:34:52;;;;;;;16.07;9.60;;;;;;;9.28;68.33;99882.50;1635795;87;21223;-77
2022/09/22 02:38:01;;;;;;;14.05;8.98;;;;;;;9.28;68.53;99876.52;1634732;87;21352;-77
2022/09/22 02:41:25;;;;;;;14.13;8.98;;;;;;;9.23;68.94;99880.30;1635842;87;21227;-78
2022/09/22 02:44:49;;;;;;;16.02;8.25;;;;;;;9.23;69.23;99880.83;1635880;87;21208;-78
2022/09/22 02:48:07;;;;;;;12.78;9.15;;;;;;;9.25;68.41;99877.39;1634635;87;21231;-78
2022/09/22 02:51:13;;;;;;;21.73;9.83;;;;;;;9.27;68.42;99881.66;1634902;86;21814;-78
2022/09/22 02:54:17;;;;;;;18.65;9.60;;;;;;;9.21;69.39;99879.09;1638240;86;21306;-79
2022/09/22 02:57:23;;;;;;;13.68;9.70;;;;;;;9.22;69.67;99871.75;1642646;87;21298;-78
2022/09/22 03:00:31;;;;;;;20.62;10.78;;;;;;;9.31;69.50;99869.33;1642740;87;21264;-78
2022/09/22 03:03:37;;;;;;;19.85;11.20;;;;;;;9.29;70.01;99859.11;1643220;87;21510;-78
2022/09/22 03:06:42;;;;;;;19.95;10.88;;;;;;;9.32;70.47;99858.77;1643242;87;21220;-78
2022/09/22 03:09:48;;;;;;;21.70;10.82;;;;;;;9.41;70.51;99859.55;1643243;87;21207;-78
2022/09/22 03:12:56;;;;;;;16.30;11.28;;;;;;;9.46;70.64;99864.83;1643115;87;21861;-78
2022/09/22 03:16:05;;;;;;;14.10;9.75;;;;;;;9.50;70.76;99870.75;1642560;87;21370;-78
2022/09/22 03:19:10;;;;;;;19.12;10.03;;;;;;;9.49;70.59;99870.42;1643165;87;21789;-78
2022/09/22 03:22:17;;;;;;;20.92;11.18;;;;;;;9.50;69.56;99865.81;1643265;87;21848;-78
2022/09/22 03:25:23;;;;;;;12.10;9.08;;;;;;;9.32;69.50;99872.41;1643281;87;21215;-78
2022/09/22 03:28:29;;;;;;;20.82;9.70;;;;;;;9.30;69.62;99868.99;1642290;87;21762;-78
2022/09/22 03:31:35;;;;;;;13.60;10.55;;;;;;;9.30;69.81;99864.05;1642432;87;21315;-78
2022/09/22 03:34:41;;;;;;;15.48;9.13;;;;;;;9.35;70.00;99871.19;1643173;87;21227;-78
2022/09/22 03:37:46;;;;;;;21.65;11.60;;;;;;;9.39;70.36;99876.11;1642839;87;21255;-78
2022/09/22 03:41:00;;;;;;;21.33;10.40;;;;;;;9.51;70.26;99876.57;1643169;87;21259;-78
2022/09/22 03:44:06;;;;;;;14.47;9.53;;;;;;;9.51;70.06;99871.63;1643206;87;21223;-79
2022/09/22 03:47:12;;;;;;;15.58;8.13;;;;;;;9.54;70.06;99876.19;1642202;87;21258;-78
2022/09/22 03:50:18;;;;;;;16.42;9.28;;;;;;;9.54;69.42;99882.17;1642954;86;21263;-79
2022/09/22 03:53:24;;;;;;;19.40;9.13;;;;;;;9.54;68.42;99883.53;1643293;87;21223;-78
2022/09/22 03:56:29;;;;;;;13.40;9.25;;;;;;;9.50;68.07;99884.92;1635698;86;21259;-78
2022/09/22 03:59:35;;;;;;;15.40;9.03;;;;;;;9.38;68.24;99873.05;1635639;87;21248;-78
2022/09/22 04:02:41;;;;;;;14.87;9.65;;;;;;;9.40;68.23;99874.23;1634637;87;21255;-78
2022/09/22 04:05:47;;;;;;;13.05;9.00;;;;;;;9.48;68.64;99879.65;1634405;87;21239;-78
2022/09/22 04:08:53;;;;;;;14.73;8.83;;;;;;;9.59;69.12;99889.30;1634414;87;21219;-78
2022/09/22 04:11:59;;;;;;;15.93;7.87;;;;;;;9.72;69.27;99889.05;1635561;87;21227;-78
2022/09/22 04:15:05;;;;;;;10.88;8.50;;;;;;;9.83;69.34;99878.72;1635767;87;21806;-78
2022/09/22 04:18:13;;;;;;;13.95;9.83;;;;;;;9.96;69.32;99885.28;1634550;87;21275;-78
2022/09/22 04:21:17;;;;;;;11.60;8.73;;;;;;;10.12;69.44;99883.48;1635618;87;21224;-78
2022/09/22 04:24:23;;;;;;;12.40;8.50;;;;;;;10.32;69.47;99886.05;1635663;87;21271;-78
2022/09/22 04:27:28;;;;;;;13.68;9.55;;;;;;;10.48;69.48;99887.25;1634278;87;21240;-78
2022/09/22 04:30:39;;;;;;;12.95;8.58;;;;;;;10.60;69.55;99893.65;1634445;87;21771;-78
2022/09/22 04:33:44;;;;;;;13.58;8.25;;;;;;;10.75;69.78;99893.98;1635793;87;21557;-78
2022/09/22 04:36:54;;;;;;;18.27;9.18;;;;;;;10.92;69.76;99888.34;1635806;87;21281;-78
2022/09/22 04:40:00;;;;;;;12.15;9.50;;;;;;;11.10;69.82;99887.94;1634675;87;21235;-78
2022/09/22 04:43:07;;;;;;;12.55;9.48;;;;;;;11.26;70.07;99887.75;1635605;87;21227;-78
2022/09/22 04:46:12;;;;;;;14.63;10.00;;;;;;;11.48;69.89;99886.77;1635840;87;21243;-78
2022/09/22 04:49:11;;;;;;;14.93;8.85;;;;;;;11.61;70.25;99882.47;1635210;87;21763;-79
2022/09/22 04:52:17;;;;;;;15.40;8.55;;;;;;;11.84;70.20;99885.91;1635670;87;21877;-78
2022/09/22 04:55:23;;;;;;;13.08;8.75;;;;;;;12.03;70.06;99879.78;1631860;87;21259;-78
2022/09/22 04:58:30;;;;;;;11.63;9.28;;;;;;;12.16;70.09;99876.84;1628688;87;21780;-78
2022/09/22 05:01:35;;;;;;;12.53;9.15;;;;;;;12.35;70.18;99886.30;1635759;87;21206;-78
2022/09/22 05:04:40;;;;;;;13.62;8.75;;;;;;;12.48;70.56;99882.30;1631083;86;21257;-78
2022/09/22 05:07:53;;;;;;;13.48;8.05;;;;;;;12.75;70.68;99888.80;1633131;86;21301;-78
2022/09/22 05:10:59;;;;;;;12.07;8.93;;;;;;;13.04;70.48;99889.95;1632119;86;21290;-79
2022/09/22 05:14:06;;;;;;;11.40;9.18;;;;;;;13.25;70.34;99900.55;1633684;86;21804;-79
2022/09/22 05:17:12;;;;;;;11.53;8.93;;;;;;;13.45;70.34;99901.47;1624470;86;21237;-79
2022/09/22 05:20:18;;;;;;;10.50;7.87;;;;;;;13.72;70.15;99912.05;1631624;86;21276;-79
2022/09/22 05:23:28;;;;;;;10.20;8.28;;;;;;;13.85;69.99;99906.28;1633411;86;21285;-80
2022/09/22 05:26:34;;;;;;;11.33;6.53;;;;;;;14.02;69.69;99907.06;1631686;86;21218;-80
2022/09/22 05:29:40;;;;;;;12.00;6.62;;;;;;;14.23;69.45;99913.44;1631740;86;21294;-80
2022/09/22 05:32:51;;;;;;;7.60;6.17;;;;;;;14.41;68.87;99915.58;1631193;86;21263;-78
2022/09/22 05:35:59;;;;;;;6.97;6.05;;;;;;;14.57;68.28;99920.68;1628064;86;21194;-79
2022/09/22 05:39:06;;;;;;;11.20;7.97;;;;;;;14.67;68.01;99916.13;1634139;86;21245;-78
2022/09/22 05:42:13;;;;;;;13.98;7.72;;;;;;;14.94;67.36;99921.08;1632403;86;21214;-78
2022/09/22 05:45:18;;;;;;;10.00;6.67;;;;;;;15.08;66.83;99920.84;1629267;86;21266;-78
2022/09/22 05:48:25;;;;;;;8.68;6.80;;;;;;;15.19;66.14;99921.23;1630657;86;21268;-78
2022/09/22 05:51:31;;;;;;;7.47;6.35;;;;;;;15.29;65.53;99921.12;1630162;86;21234;-78
2022/09/22 05:54:32;;;;;;;9.03;6.33;;;;;;;15.42;64.99;99920.21;1633352;86;21838;-80
2022/09/22 05:57:33;;;;;;;6.28;5.67;;;;;;;15.57;64.31;99919.94;1613017;86;21327;-80
2022/09/22 06:00:33;;;;;;;7.03;5.92;;;;;;;15.73;63.62;99924.16;1618487;88;21874;-78
2022/09/22 06:03:25;;;;;;;6.70;5.53;;;;;;;15.92;62.95;99916.31;1618669;87;21224;-78
2022/09/22 06:06:13;;;;;;;7.12;5.85;;;;;;;16.10;62.50;99917.80;1629617;86;21907;-79
2022/09/22 06:09:07;;;;;;;11.22;5.97;;;;;;;15.92;62.84;99916.85;1620027;87;21208;-79
2022/09/22 06:12:14;;;;;;;6.25;5.50;;;;;;;16.00;63.03;99927.10;1619186;87;21218;-79
2022/09/22 06:15:19;;;;;;;5.97;5.00;;;;;;;16.15;62.50;99924.58;1617233;87;21244;-79
2022/09/22 06:18:25;;;;;;;7.08;5.20;;;;;;;16.26;62.13;99927.98;1617237;87;21278;-79
2022/09/22 06:21:34;;;;;;;5.72;5.10;;;;;;;16.41;61.74;99919.38;1617763;87;21228;-79
2022/09/22 06:24:40;;;;;;;7.97;5.05;;;;;;;16.53;60.95;99914.30;1616854;87;21684;-78
2022/09/22 06:27:45;;;;;;;6.00;4.67;;;;;;;16.69;60.39;99905.98;1618419;87;21230;-79
2022/09/22 06:30:52;;;;;;;7.17;5.85;;;;;;;16.79;59.97;99913.78;1616392;87;21327;-79
2022/09/22 06:36:30;;;;;;;5.75;4.75;;;;;;;17.03;59.14;99901.02;1834834;76;28476;-78
2022/09/22 06:39:37;;;;;;;6.62;4.03;;;;;;;17.11;58.84;99893.27;1796949;77;21157;-80
2022/09/22 06:42:44;;;;;;;5.08;3.83;;;;;;;17.20;58.42;99893.82;1783445;79;21157;-79
2022/09/22 06:45:54;;;;;;;6.03;3.50;;;;;;;17.26;57.52;99897.58;1790337;79;21173;-80
2022/09/22 06:49:04;;;;;;;4.05;3.27;;;;;;;17.44;56.37;99898.96;1796024;79;21169;-79
2022/09/22 06:52:15;;;;;;;5.80;3.12;;;;;;;17.55;55.89;99900.09;1797874;77;21326;-79
2022/09/22 06:55:21;;;;;;;3.75;3.02;;;;;;;17.63;55.42;99899.25;1798402;77;21779;-78
2022/09/22 06:58:28;;;;;;;5.22;3.52;;;;;;;17.70;55.08;99895.03;1795192;77;21831;-79
2022/09/22 07:01:34;;;;;;;3.80;3.33;;;;;;;17.83;54.88;99903.70;1797524;77;21200;-79
2022/09/22 07:04:42;;;;;;;4.45;2.50;;;;;;;17.94;54.25;99899.32;1801375;77;21241;-78
2022/09/22 07:07:50;;;;;;;7.22;3.27;;;;;;;18.02;53.51;99910.03;1790290;79;21210;-78
2022/09/22 07:11:03;;;;;;;3.45;2.55;;;;;;;18.04;53.17;99909.28;1807280;79;21137;-79
2022/09/22 07:14:11;;;;;;;4.08;2.37;;;;;;;18.20;52.56;99906.38;1795991;79;21735;-80
2022/09/22 07:17:19;;;;;;;4.80;2.95;;;;;;;18.25;52.33;99903.20;1789877;79;21153;-79
2022/09/22 07:20:27;;;;;;;5.28;3.27;;;;;;;18.31;52.14;99906.42;1788730;79;21188;-80
2022/09/22 07:23:35;;;;;;;6.20;2.70;;;;;;;18.32;51.56;99904.50;1791146;79;21233;-79
2022/09/22 07:26:45;;;;;;;5.97;2.55;;;;;;;18.30;50.86;99910.80;1794602;79;21223;-79
2022/09/22 07:29:53;;;;;;;7.97;2.72;;;;;;;18.46;49.94;99912.05;1794375;79;21786;-78
2022/09/22 07:33:00;;;;;;;3.10;2.60;;;;;;;18.50;49.44;99909.95;1792468;79;21169;-78
2022/09/22 07:36:13;;;;;;;2.67;2.47;;;;;;;18.59;49.48;99900.22;1786933;77;21194;-80
2022/09/22 07:39:18;;;;;;;3.47;2.27;;;;;;;18.75;48.71;99904.78;1780333;78;21207;-79
2022/09/22 07:42:24;;;;;;;2.30;2.08;;;;;;;18.67;48.19;99898.17;1775618;79;21149;-80
2022/09/22 07:45:31;;;;;;;2.98;2.42;;;;;;;18.63;47.99;99897.28;1779970;79;21228;-80
2022/09/22 07:48:46;;;;;;;3.45;2.20;;;;;;;18.62;47.85;99894.19;1773740;79;21228;-78
2022/09/22 07:52:10;;;;;;;2.50;2.27;;;;;;;18.72;48.03;99885.86;1777366;79;21202;-80
2022/09/22 07:55:17;;;;;;;3.70;2.60;;;;;;;18.78;48.01;99886.30;1780115;79;21221;-79
2022/09/22 07:58:24;;;;;;;6.22;2.42;;;;;;;18.87;48.16;99882.93;1768884;79;21177;-79
2022/09/22 08:01:33;;;;;;;4.53;2.40;;;;;;;18.88;47.30;99878.23;1781753;79;21157;-79
2022/09/22 08:04:41;;;;;;;2.45;2.17;;;;;;;18.89;46.96;99869.66;1776627;78;21236;-78
2022/09/22 08:07:47;;;;;;;2.35;2.10;;;;;;;18.98;47.08;99873.47;1779266;79;21139;-78
2022/09/22 08:10:54;;;;;;;2.47;2.12;;;;;;;18.99;47.25;99860.74;1774162;79;21168;-78
2022/09/22 08:14:05;;;;;;;2.52;2.08;;;;;;;19.09;47.00;99862.35;1778779;79;21183;-78
2022/09/22 08:17:11;;;;;;;2.12;1.92;;;;;;;19.19;46.49;99848.42;1779402;79;22200;-78
2022/09/22 08:20:18;;;;;;;4.65;1.92;;;;;;;19.23;45.97;99853.78;1779636;79;21181;-79
2022/09/22 08:23:25;;;;;;;2.98;1.92;;;;;;;19.24;44.30;99851.30;1765038;79;21287;-79
2022/09/22 08:26:31;;;;;;;2.25;2.05;;;;;;;19.31;44.88;99845.09;1784861;78;21446;-78
2022/09/22 08:29:37;;;;;;;3.08;2.40;;;;;;;19.34;44.73;99839.06;1777059;79;21177;-78
2022/09/22 08:32:44;;;;;;;2.75;1.95;;;;;;;19.40;44.76;99836.69;1779429;78;21217;-80
2022/09/22 08:36:03;;;;;;;2.12;1.60;;;;;;;19.47;45.20;99837.38;1777852;79;22306;-80
2022/09/22 08:39:08;;;;;;;5.17;2.47;;;;;;;19.54;45.39;99842.25;1789385;79;21800;-79
2022/09/22 08:42:27;;;;;;;2.87;1.90;;;;;;;19.74;44.86;99842.39;1781316;79;21152;-80
2022/09/22 08:45:38;;;;;;;5.92;2.20;;;;;;;19.99;44.33;99853.95;1756760;79;21189;-80
2022/09/22 08:52:10;;;;;;;3.27;1.90;;;;;;;20.00;43.05;99838.17;1725655;82;22233;-79
2022/09/22 08:55:30;;;;;;;;;;;;;;;20.15;42.94;99825.40;1739026;80;21169;-79
2022/09/22 08:58:57;;;;;;;3.87;1.90;;;;;;;20.18;43.27;99830.98;1742077;80;20248;-79
2022/09/22 09:02:29;;;;;;;2.25;2.05;;;;;;;20.24;43.03;99825.83;1745605;80;21187;-79
2022/09/22 09:06:10;;;;;;;3.75;2.45;;;;;;;20.05;42.86;99826.61;1745778;81;21185;-79
2022/09/22 09:09:15;;;;;;;2.02;1.82;;;;;;;19.98;42.88;99826.46;1741611;81;21315;-79
2022/09/22 09:12:41;;;;;;;3.20;1.92;;;;;;;20.05;43.68;99841.04;1745383;80;21392;-79
2022/09/22 09:15:51;;;;;;;2.72;2.20;;;;;;;20.22;43.06;99831.33;1745856;80;21197;-79
2022/09/22 09:19:03;;;;;;;3.02;2.40;;;;;;;20.38;43.53;99835.52;1744845;80;21252;-79
2022/09/22 09:22:09;;;;;;;3.60;2.12;;;;;;;20.35;42.16;99840.72;1744069;81;21256;-79
2022/09/22 09:25:28;;;;;;;7.12;4.00;;;;;;;20.29;42.22;99838.96;1716827;81;21213;-79
2022/09/22 09:28:54;;;;;;;4.17;2.60;;;;;;;20.21;41.96;99847.70;1752652;81;21212;-79
2022/09/22 09:32:01;;;;;;;5.47;2.20;;;;;;;20.11;42.11;99856.14;1745351;81;21169;-79
2022/09/22 09:35:08;;;;;;;1.80;1.60;;;;;;;20.17;41.86;99849.58;1757152;81;21196;-77
2022/09/22 09:38:16;;;;;;;3.20;2.10;;;;;;;20.17;41.36;99857.91;1735311;81;21203;-79
2022/09/22 09:41:37;;;;;;;2.37;1.77;;;;;;;20.29;41.31;99855.63;1731197;81;21229;-79
2022/09/22 09:44:52;;;;;;;4.97;1.62;;;;;;;20.54;41.73;99851.07;1787610;79;21170;-80
2022/09/22 09:48:18;;;;;;;4.72;1.60;;;;;;;20.68;40.70;99853.80;1770058;79;21189;-77
2022/09/22 09:51:23;;;;;;;2.83;1.70;;;;;;;20.75;39.68;99854.48;1777426;79;21243;-79
2022/09/22 09:54:29;;;;;;;5.62;1.90;;;;;;;20.72;39.42;99865.26;1779707;79;21383;-78
2022/09/22 09:57:35;;;;;;;4.28;2.10;;;;;;;20.71;39.32;99863.58;1772762;79;21189;-78
2022/09/22 10:00:41;;;;;;;4.22;1.70;;;;;;;20.76;40.13;99861.72;1773608;79;21216;-79
2022/09/22 10:03:53;;;;;;;3.55;2.15;;;;;;;21.01;39.49;99852.91;1775529;79;21212;-79
2022/09/22 10:07:00;;;;;;;3.30;2.20;;;;;;;21.33;39.53;99852.27;1770449;79;21193;-80
2022/09/22 10:10:27;;;;;;;3.40;2.20;;;;;;;21.55;39.42;99838.34;1780420;79;21181;-80
2022/09/22 10:13:39;;;;;;;3.02;2.22;;;;;;;21.67;38.76;99835.72;1789151;79;21155;-78
2022/09/22 10:16:46;;;;;;;2.42;2.10;;;;;;;21.77;37.56;99834.98;1775354;79;21182;-79
2022/09/22 10:19:52;;;;;;;3.42;2.00;;;;;;;21.81;37.90;99835.31;1761489;79;21201;-78
2022/09/22 10:23:01;;;;;;;4.55;1.95;;;;;;;21.87;37.77;99836.48;1774730;79;21749;-78
2022/09/22 10:26:37;;;;;;;2.22;1.90;;;;;;;21.83;37.75;99831.19;1765988;78;21153;-79
2022/09/22 10:29:41;;;;;;;2.25;1.80;;;;;;;21.77;37.71;99825.25;1771771;79;21160;-77
2022/09/22 10:32:46;;;;;;;3.52;2.37;;;;;;;21.64;37.84;99826.52;1777746;79;21201;-79
2022/09/22 10:36:11;;;;;;;2.50;2.08;;;;;;;21.46;38.26;99824.08;1777243;79;21233;-78
2022/09/22 10:39:20;;;;;;;2.00;1.80;;;;;;;21.43;37.78;99828.20;1779314;78;21245;-80
2022/09/22 10:42:47;;;;;;;4.65;2.50;;;;;;;21.31;37.59;99821.08;1791329;79;21185;-77
2022/09/22 10:46:09;;;;;;;5.33;3.70;;;;;;;21.38;37.62;99817.56;1792921;79;21327;-79
2022/09/22 10:49:59;;;;;;;3.72;2.50;;;;;;;21.49;37.84;99808.78;1784551;79;21208;-79
2022/09/22 10:53:20;;;;;;;3.80;2.52;;;;;;;21.57;38.03;99814.73;1791955;79;21196;-79
2022/09/22 10:56:46;;;;;;;5.65;2.60;;;;;;;21.52;37.80;99800.77;1783214;79;21855;-79
2022/09/22 11:00:23;;;;;;;8.65;2.60;;;;;;;21.37;37.72;99796.42;1790558;79;21200;-78
2022/09/22 11:04:07;;;;;;;6.75;2.55;;;;;;;21.21;37.87;99794.50;1792940;79;21220;-78
2022/09/22 11:15:14;;;;;;;8.17;4.90;;;;;;;20.96;37.23;99799.18;1799101;79;21141;-79
2022/09/22 11:18:51;;;;;;;8.78;3.05;;;;;;;21.08;37.35;99799.92;1793705;79;21240;-78
2022/09/22 11:22:24;;;;;;;6.58;2.67;;;;;;;21.20;37.45;99802.00;1784212;79;21224;-79
2022/09/22 11:26:16;;;;;;;8.63;5.15;;;;;;;21.31;37.33;99799.66;1788833;79;21611;-78
2022/09/22 11:29:59;;;;;;;54.60;30.68;;;;;;;21.31;37.64;99794.66;1782332;79;21754;-79
2022/09/22 11:33:38;;;;;;;20.60;13.25;;;;;;;21.27;37.42;99790.70;1796987;79;21232;-78
2022/09/22 11:37:24;;;;;;;9.23;5.75;;;;;;;21.34;37.06;99796.92;1788487;79;21236;-78
2022/09/22 11:41:24;;;;;;;7.72;5.50;;;;;;;21.34;37.11;99801.09;1793113;79;21288;-78
2022/09/22 11:44:49;;;;;;;8.10;4.90;;;;;;;21.31;38.86;99794.66;1771953;79;21219;-78
2022/09/22 11:47:59;;;;;;;14.28;5.17;;;;;;;21.27;39.64;99797.66;1797232;79;21233;-79
2022/09/22 11:51:48;;;;;;;9.30;5.42;;;;;;;21.12;39.38;99802.45;1773958;79;21256;-78
2022/09/22 11:55:27;;;;;;;10.00;6.50;;;;;;;21.08;39.53;99802.70;1790633;79;21240;-78
2022/09/22 11:58:34;;;;;;;12.35;6.70;;;;;;;21.01;40.16;99812.59;1780829;79;21522;-79
2022/09/22 12:01:44;;;;;;;9.38;6.10;;;;;;;20.87;39.90;99797.39;1774934;79;22102;-78
2022/09/22 12:05:03;;;;;;;13.15;6.22;;;;;;;20.88;40.60;99792.95;1767135;79;21197;-79
2022/09/22 12:08:22;;;;;;;7.55;5.22;;;;;;;20.96;40.53;99802.80;1795458;79;21174;-78
2022/09/22 12:11:29;;;;;;;11.60;5.65;;;;;;;21.01;39.55;99805.64;1798628;79;21769;-78
2022/09/22 12:14:37;;;;;;;7.47;5.42;;;;;;;20.98;39.62;99799.20;1766968;79;21272;-78
2022/09/22 12:17:55;;;;;;;9.28;5.15;;;;;;;21.10;39.33;99804.10;1779486;79;21272;-78
2022/09/22 12:21:08;;;;;;;12.90;6.03;;;;;;;21.04;38.69;99814.88;1775861;79;21806;-78
2022/09/22 12:24:18;;;;;;;10.03;5.10;;;;;;;20.91;39.14;99811.91;1786979;79;21178;-78
2022/09/22 12:27:34;;;;;;;13.22;4.67;;;;;;;20.98;38.74;99801.98;1778494;79;21169;-77
2022/09/22 12:30:40;;;;;;;7.10;4.92;;;;;;;21.06;38.91;99800.70;1764265;81;21859;-78
2022/09/22 12:33:53;;;;;;;7.72;5.37;;;;;;;21.04;38.61;99805.70;1766022;81;21202;-78
2022/09/22 12:37:03;;;;;;;5.50;4.15;;;;;;;20.89;38.30;99804.94;1767645;79;21209;-78
2022/09/22 12:40:26;;;;;;;11.30;6.00;;;;;;;20.95;37.79;99798.89;1779917;79;21165;-77
2022/09/22 12:43:33;;;;;;;8.23;6.22;;;;;;;20.81;38.66;99809.53;1766825;81;21197;-78
2022/09/22 12:46:40;;;;;;;9.38;6.45;;;;;;;20.71;39.24;99804.67;1765990;81;21209;-77
2022/09/22 12:50:05;;;;;;;10.75;5.55;;;;;;;20.60;39.38;99802.27;1767466;81;21784;-79
2022/09/22 12:53:20;;;;;;;8.23;5.45;;;;;;;20.57;39.63;99806.12;1771497;79;21205;-79
2022/09/22 12:57:15;;;;;;;7.10;4.17;;;;;;;20.52;39.40;99812.99;1794591;79;22309;-79
2022/09/22 13:00:28;;;;;;;13.75;4.97;;;;;;;20.47;39.18;99813.75;1793588;79;21217;-78
2022/09/22 13:03:37;;;;;;;7.83;3.80;;;;;;;20.41;39.23;99813.31;1767325;79;21193;-78
2022/09/22 13:06:51;;;;;;;6.50;4.12;;;;;;;20.53;39.06;99812.73;1767360;81;21193;-79
2022/09/22 13:09:57;;;;;;;5.50;4.08;;;;;;;20.56;39.10;99820.56;1778444;79;21237;-79
2022/09/22 13:13:14;;;;;;;6.87;5.05;;;;;;;20.45;39.38;99818.67;1755814;79;21170;-79
2022/09/22 13:16:28;;;;;;;6.78;4.97;;;;;;;20.47;39.42;99816.53;1798508;79;21224;-79
2022/09/22 13:19:20;;;;;;;8.43;5.05;;;;;;;20.41;39.42;99816.09;1800561;79;21768;-79
2022/09/22 13:22:27;;;;;;;7.00;4.72;;;;;;;20.33;39.69;99817.93;1800857;79;21178;-79
2022/09/22 13:25:34;;;;;;;10.08;4.22;;;;;;;20.38;39.55;99823.02;1799536;79;21170;-78
2022/09/22 13:28:39;;;;;;;6.12;3.87;;;;;;;20.39;39.74;99825.24;1800531;79;21178;-78
2022/09/22 13:31:51;;;;;;;13.32;3.55;;;;;;;20.39;40.16;99823.85;1799080;79;22483;-78
2022/09/22 13:34:58;;;;;;;5.55;3.67;;;;;;;20.49;39.95;99828.22;1799579;79;21158;-78
2022/09/22 13:38:06;;;;;;;5.40;3.25;;;;;;;20.44;40.02;99826.71;1800101;79;21201;-78
2022/09/22 13:41:17;;;;;;;4.40;3.00;;;;;;;20.35;40.14;99819.89;1798834;79;21217;-78
2022/09/22 13:44:27;;;;;;;5.53;2.98;;;;;;;20.33;39.92;99814.60;1812058;79;21737;-78
2022/09/22 13:47:33;;;;;;;5.37;3.10;;;;;;;20.21;39.81;99808.83;1814814;79;21958;-78
2022/09/22 13:50:39;;;;;;;8.35;3.42;;;;;;;20.13;40.37;99808.68;1814525;79;22578;-78
2022/09/22 13:53:45;;;;;;;10.55;3.35;;;;;;;20.13;40.41;99808.13;1801460;79;21149;-78
2022/09/22 13:56:52;;;;;;;4.60;3.30;;;;;;;20.03;40.79;99809.34;1815712;79;21847;-78
2022/09/22 13:59:58;;;;;;;11.00;3.33;;;;;;;20.09;40.50;99811.14;1815752;79;21205;-78
2022/09/22 14:03:05;;;;;;;7.28;3.50;;;;;;;19.95;40.80;99818.10;1799254;79;21221;-78
2022/09/22 14:06:13;;;;;;;6.28;3.58;;;;;;;19.93;41.19;99824.44;1801292;79;21216;-78
2022/09/22 14:09:19;;;;;;;7.42;3.15;;;;;;;20.02;40.87;99822.94;1815471;79;21179;-79
2022/09/22 14:12:24;;;;;;;7.67;2.90;;;;;;;19.96;41.23;99814.23;1815937;79;21165;-79
2022/09/22 14:15:49;;;;;;;3.75;2.70;;;;;;;19.92;41.24;99817.20;1815489;79;21153;-79
2022/09/22 14:18:59;;;;;;;3.60;2.95;;;;;;;19.68;41.68;99817.03;1815601;79;21169;-79
2022/09/22 14:22:04;;;;;;;;;;;;;;;19.88;41.62;99814.08;1816489;79;21256;-79
2022/09/22 14:25:12;;;;;;;7.42;3.70;;;;;;;19.78;41.96;99822.77;1813855;79;20648;-79
2022/09/22 14:28:21;;;;;;;6.40;2.75;;;;;;;19.65;42.39;99815.03;1815392;79;21224;-79
2022/09/22 14:31:31;;;;;;;4.65;3.20;;;;;;;19.65;41.92;99818.35;1814872;79;21835;-79
2022/09/22 14:34:39;;;;;;;6.28;3.27;;;;;;;19.58;42.22;99825.41;1815385;79;21221;-79
2022/09/22 14:37:44;;;;;;;8.55;3.00;;;;;;;19.56;42.39;99823.41;1815028;79;21169;-79
2022/09/22 14:40:38;;;;;;;4.53;3.12;;;;;;;19.63;42.30;99836.64;1815541;79;21201;-78
2022/09/22 14:43:41;;;;;;;9.05;3.27;;;;;;;19.54;42.71;99842.25;1815785;78;21755;-79
2022/09/22 14:46:48;;;;;;;7.50;3.17;;;;;;;19.56;42.93;99832.28;1815464;79;21161;-78
2022/09/22 14:49:55;;;;;;;7.10;3.20;;;;;;;19.65;43.20;99833.61;1815390;79;21198;-78
2022/09/22 14:53:21;;;;;;;10.68;3.60;;;;;;;19.54;43.56;99828.93;1815446;79;21173;-78
2022/09/22 14:56:35;;;;;;;15.08;3.22;;;;;;;19.30;44.32;99815.69;1815881;79;21165;-78
2022/09/22 15:03:05;;;;;;;6.83;2.95;;;;;;;19.10;45.05;99821.61;1752725;81;21206;-78
2022/09/22 15:06:16;;;;;;;6.28;3.05;;;;;;;19.06;45.38;99830.14;1722491;82;21257;-79
2022/09/22 15:09:34;;;;;;;10.45;2.87;;;;;;;18.97;45.63;99839.38;1722155;82;21228;-78
2022/09/22 15:12:50;;;;;;;5.03;2.80;;;;;;;18.97;45.68;99844.07;1734407;81;21580;-78
2022/09/22 15:15:56;;;;;;;9.58;3.00;;;;;;;18.99;45.63;99830.80;1734050;82;21203;-78